createdAt,value
2019-06-26T04:41:19.248Z,188.57
2019-06-26T04:46:23.687Z,196.23
2019-06-26T04:51:28.086Z,186.28
2019-06-26T04:56:32.465Z,201.98
2019-06-26T05:01:36.895Z,180.52
2019-06-26T05:06:41.295Z,184.20
2019-06-26T05:11:45.689Z,186.28
2019-06-26T05:16:50.159Z,179.55
2019-06-26T05:21:54.567Z,176.95
2019-06-26T05:26:58.968Z,166.00
2019-06-26T05:32:03.348Z,166.22
2019-06-26T05:37:15.044Z,146.77
2019-06-26T05:42:38.813Z,132.20
2019-06-26T05:47:43.265Z,129.63
2019-06-26T05:52:47.734Z,133.35
2019-06-26T05:57:52.167Z,135.90
2019-06-26T06:02:57.195Z,131.10
2019-06-26T06:08:01.622Z,134.22
2019-06-26T06:13:06.004Z,135.12
2019-06-26T06:18:10.506Z,125.58
2019-06-26T06:23:14.878Z,123.45
2019-06-26T06:28:19.762Z,117.25
2019-06-26T06:33:24.155Z,119.22
2019-06-26T06:38:29.336Z,102.97
2019-06-26T06:43:33.808Z,115.92
2019-06-26T06:48:38.295Z,101.85
2019-06-26T06:53:42.855Z,100.67
2019-06-26T06:58:47.260Z,102.92
2019-06-26T07:03:51.655Z,93.42
2019-06-26T07:08:56.048Z,87.00
2019-06-26T07:14:00.438Z,89.30
2019-06-26T07:19:04.890Z,73.25
2019-06-26T07:24:09.279Z,74.30
2019-06-26T07:29:13.679Z,78.10
2019-06-26T07:34:18.154Z,74.85
2019-06-26T07:39:22.646Z,76.90
2019-06-26T07:44:27.111Z,71.02
2019-06-26T07:49:31.520Z,69.70
2019-06-26T07:54:35.910Z,66.00
2019-06-26T07:59:40.302Z,68.65
2019-06-26T08:04:44.704Z,61.02
2019-06-26T08:09:49.094Z,64.65
2019-06-26T08:14:53.490Z,68.33
2019-06-26T08:19:57.903Z,55.88
2019-06-26T08:25:02.301Z,53.55
2019-06-26T08:30:10.366Z,56.15
2019-06-26T08:35:15.284Z,50.45
2019-06-26T08:40:19.826Z,61.60
2019-06-26T08:45:24.308Z,51.55
2019-06-26T08:50:28.827Z,51.05
2019-06-26T08:55:33.226Z,63.73
2019-06-26T09:00:37.617Z,62.17
2019-06-26T09:05:47.843Z,68.65
2019-06-26T09:10:48.144Z,68.10
2019-06-26T09:15:52.603Z,71.53
2019-06-26T09:20:56.992Z,65.92
2019-06-26T09:26:01.391Z,64.53
2019-06-26T09:31:05.861Z,65.12
2019-06-26T09:36:10.242Z,62.60
2019-06-26T09:41:14.633Z,64.15
2019-06-26T09:46:19.039Z,65.95
2019-06-26T09:51:23.525Z,68.97
2019-06-26T09:56:27.940Z,66.77
2019-06-26T10:01:32.366Z,66.25
2019-06-26T10:06:36.765Z,61.45
2019-06-26T10:11:41.154Z,66.12
2019-06-26T10:16:45.534Z,64.22
2019-06-26T10:21:49.919Z,62.67
2019-06-26T10:26:54.305Z,66.55
2019-06-26T10:31:58.717Z,68.80
2019-06-26T10:37:03.170Z,72.95
2019-06-26T10:42:07.603Z,75.67
2019-06-26T10:47:11.980Z,81.45
2019-06-26T10:52:16.371Z,80.05
2019-06-26T10:57:20.757Z,81.05
2019-06-26T11:02:25.209Z,86.28
2019-06-26T11:07:29.612Z,85.97
2019-06-26T11:12:33.996Z,89.07
2019-06-26T11:17:38.376Z,87.25
2019-06-26T11:22:42.769Z,86.45
2019-06-26T11:27:47.153Z,81.53
2019-06-26T11:32:51.611Z,79.07
2019-06-26T11:37:55.990Z,77.45
2019-06-26T11:43:08.078Z,75.67
2019-06-26T11:48:12.755Z,77.27
2019-06-26T11:53:17.139Z,67.15
2019-06-26T11:58:21.557Z,72.72
2019-06-26T12:03:25.954Z,65.30
2019-06-26T12:08:30.850Z,66.92
2019-06-26T12:13:35.292Z,59.18
2019-06-26T12:18:39.666Z,58.45
2019-06-26T12:23:44.102Z,50.60
2019-06-26T12:28:48.517Z,49.08
2019-06-26T12:33:52.905Z,46.35
2019-06-26T12:38:58.868Z,37.38
2019-06-26T12:44:03.376Z,33.80
2019-06-26T12:49:07.744Z,29.95
2019-06-26T12:54:12.215Z,22.42
2019-06-26T12:59:16.596Z,21.85
2019-06-26T13:04:21.013Z,22.90
2019-06-26T13:09:25.390Z,24.35
2019-06-26T13:14:29.792Z,25.00
2019-06-26T13:19:34.248Z,24.92
2019-06-26T13:24:38.667Z,23.90
2019-06-26T13:29:43.025Z,22.58
2019-06-26T13:34:47.449Z,24.50
2019-06-26T13:39:51.824Z,24.07
2019-06-26T13:44:56.223Z,23.83
2019-06-26T13:50:00.614Z,25.85
2019-06-26T13:55:06.322Z,23.92
2019-06-26T14:00:11.923Z,26.93
2019-06-26T14:05:16.485Z,28.83
2019-06-26T14:10:21.014Z,24.23
2019-06-26T14:15:27.388Z,27.62
2019-06-26T14:20:31.823Z,24.55
2019-06-26T14:25:37.299Z,28.67
2019-06-26T14:30:43.345Z,26.17
2019-06-26T14:35:47.776Z,23.92
2019-06-26T14:40:52.189Z,18.60
2019-06-26T14:45:56.559Z,19.80
2019-06-26T14:51:01.031Z,19.55
2019-06-26T14:56:05.426Z,17.67
2019-06-26T15:01:09.790Z,15.90
2019-06-26T15:06:17.005Z,15.93
2019-06-26T15:11:23.265Z,17.52
2019-06-26T15:16:30.360Z,18.25
2019-06-26T15:21:33.846Z,16.45
2019-06-26T15:26:38.229Z,13.38
2019-06-26T15:31:42.615Z,14.10
2019-06-26T15:36:47.085Z,13.88
2019-06-26T15:41:51.548Z,14.28
2019-06-26T15:46:55.931Z,13.45
2019-06-26T15:52:14.116Z,14.50
2019-06-26T15:57:06.608Z,11.15
2019-06-26T16:02:11.019Z,10.75
2019-06-26T16:07:15.407Z,11.03
2019-06-26T16:12:19.778Z,11.97
2019-06-26T16:17:44.796Z,12.63
2019-06-26T16:22:49.233Z,13.15
2019-06-26T16:28:04.646Z,11.08
2019-06-26T16:32:59.834Z,11.73
2019-06-26T16:38:04.216Z,10.28
2019-06-26T16:43:08.698Z,12.68
2019-06-26T16:48:13.603Z,11.48
2019-06-26T16:53:18.155Z,12.82
2019-06-26T16:58:24.035Z,10.43
2019-06-26T17:03:28.419Z,11.50
2019-06-26T17:08:32.817Z,10.85
2019-06-26T17:13:37.214Z,14.53
2019-06-26T17:18:41.746Z,10.18
2019-06-26T17:23:46.354Z,11.97
2019-06-26T17:28:50.808Z,9.78
2019-06-26T17:33:59.679Z,7.72
2019-06-26T17:39:05.822Z,8.95
2019-06-26T17:44:11.371Z,9.03
2019-06-26T17:49:16.296Z,10.90
2019-06-26T17:54:21.659Z,9.68
2019-06-26T17:59:26.853Z,8.90
2019-06-26T18:04:31.268Z,9.33
2019-06-26T18:09:35.692Z,7.70
2019-06-26T18:14:43.112Z,8.83
2019-06-26T18:19:46.287Z,6.47
2019-06-26T18:24:50.688Z,7.37
2019-06-26T18:29:55.106Z,8.93
2019-06-26T18:34:59.467Z,8.45
2019-06-26T18:40:04.751Z,10.28
2019-06-26T18:45:09.545Z,7.97
2019-06-26T18:50:14.295Z,10.05
2019-06-26T18:55:18.810Z,12.05
2019-06-26T19:00:24.648Z,8.00
2019-06-26T19:05:29.696Z,8.40
2019-06-26T19:10:34.742Z,11.78
2019-06-26T19:15:39.110Z,7.75
2019-06-26T19:20:43.653Z,13.35
2019-06-26T19:25:49.597Z,11.57
2019-06-26T19:30:54.314Z,10.23
2019-06-26T19:35:58.762Z,12.37
2019-06-26T19:41:03.167Z,14.58
2019-06-26T19:46:07.532Z,11.33
2019-06-26T19:51:11.929Z,12.20
2019-06-26T19:56:19.972Z,10.80
2019-06-26T20:01:22.580Z,10.80
2019-06-26T20:06:26.972Z,19.12
2019-06-26T20:11:31.419Z,13.43
2019-06-26T20:16:36.270Z,12.80
